createdAt,value
2022-10-23T00:01:43.999Z,101650.00
2022-10-23T00:04:21.270Z,101653.56
2022-10-23T00:06:49.902Z,101648.16
2022-10-23T00:09:21.633Z,101654.31
2022-10-23T00:11:50.737Z,101648.00
2022-10-23T00:14:23.831Z,101651.72
2022-10-23T00:16:51.686Z,101646.31
2022-10-23T00:19:18.738Z,101652.56
2022-10-23T00:21:45.774Z,101647.78
2022-10-23T00:24:12.844Z,101648.78
2022-10-23T00:26:40.707Z,101658.50
2022-10-23T00:29:08.727Z,101660.13
2022-10-23T00:31:36.759Z,101659.97
2022-10-23T00:34:04.236Z,101665.28
2022-10-23T00:36:31.518Z,101659.75
2022-10-23T00:38:58.530Z,101656.19
2022-10-23T00:41:29.202Z,101658.75
2022-10-23T00:44:09.188Z,101661.34
2022-10-23T00:46:38.678Z,101661.22
2022-10-23T00:49:06.538Z,101654.00
2022-10-23T00:51:45.153Z,101649.44
2022-10-23T00:54:29.683Z,101654.00
2022-10-23T00:57:00.217Z,101655.72
2022-10-23T00:59:28.324Z,101642.03
2022-10-23T01:01:55.691Z,101649.31
2022-10-23T01:04:24.167Z,101657.56
2022-10-23T01:07:15.589Z,101654.94
2022-10-23T01:10:14.788Z,101661.34
2022-10-23T01:13:04.627Z,101655.94
2022-10-23T01:15:53.486Z,101660.50
2022-10-23T01:18:28.005Z,101657.88
2022-10-23T01:21:19.171Z,101654.34
2022-10-23T01:24:37.530Z,101661.59
2022-10-23T01:27:27.824Z,101663.44
2022-10-23T01:30:04.129Z,101658.88
2022-10-23T01:33:08.807Z,101662.69
2022-10-23T01:36:11.581Z,101654.47
2022-10-23T01:38:45.285Z,101657.16
2022-10-23T01:41:33.600Z,101663.44
2022-10-23T01:44:25.049Z,101661.81
2022-10-23T01:46:53.911Z,101658.13
2022-10-23T01:49:23.088Z,101678.06
2022-10-23T01:52:02.355Z,101673.50
2022-10-23T01:54:34.658Z,101668.00
2022-10-23T01:57:03.582Z,101662.69
2022-10-23T01:59:42.182Z,101658.25
2022-10-23T02:02:13.404Z,101655.66
2022-10-23T02:05:02.325Z,101652.09
2022-10-23T02:07:30.336Z,101658.38
2022-10-23T02:09:58.075Z,101646.81
2022-10-23T02:12:55.872Z,101646.91
2022-10-23T02:15:36.439Z,101641.97
2022-10-23T02:18:09.723Z,101649.47
2022-10-23T02:23:21.619Z,101642.72
2022-10-23T02:26:08.248Z,101636.41
2022-10-23T02:28:44.159Z,101636.56
2022-10-23T02:31:17.315Z,101649.22
2022-10-23T02:33:46.969Z,101646.63
2022-10-23T02:36:16.098Z,101639.50
2022-10-23T02:38:45.108Z,101631.25
2022-10-23T02:41:43.659Z,101637.53
2022-10-23T02:44:37.765Z,101641.22
2022-10-23T02:47:26.650Z,101638.63
2022-10-23T02:50:18.766Z,101645.38
2022-10-23T02:53:00.004Z,101630.38
2022-10-23T02:55:45.173Z,101644.88
2022-10-23T02:58:27.811Z,101641.41
2022-10-23T03:01:06.178Z,101632.44
2022-10-23T03:03:42.052Z,101638.72
2022-10-23T03:06:09.137Z,101630.66
2022-10-23T03:08:53.471Z,101628.09
2022-10-23T03:11:21.001Z,101627.22
2022-10-23T03:13:49.511Z,101627.34
2022-10-23T03:16:16.492Z,101635.44
2022-10-23T03:18:49.537Z,101631.88
2022-10-23T03:21:17.596Z,101632.88
2022-10-23T03:23:44.555Z,101632.97
2022-10-23T03:26:17.185Z,101634.19
2022-10-23T03:28:44.149Z,101634.41
2022-10-23T03:31:11.994Z,101640.81
2022-10-23T03:33:40.055Z,101644.81
2022-10-23T03:36:10.174Z,101647.03
2022-10-23T03:38:37.177Z,101650.19
2022-10-23T03:41:05.383Z,101655.81
2022-10-23T03:43:32.365Z,101653.34
2022-10-23T03:45:59.275Z,101656.38
2022-10-23T03:48:26.566Z,101654.78
2022-10-23T03:50:57.697Z,101662.22
2022-10-23T03:53:24.677Z,101666.88
2022-10-23T03:55:51.633Z,101666.88
2022-10-23T03:58:18.564Z,101668.09
2022-10-23T04:00:46.135Z,101672.72
2022-10-23T04:03:13.002Z,101658.25
2022-10-23T04:05:42.496Z,101657.38
2022-10-23T04:08:10.604Z,101671.88
2022-10-23T04:10:37.990Z,101668.31
2022-10-23T04:13:05.020Z,101661.16
2022-10-23T04:15:35.565Z,101655.75
2022-10-23T04:18:02.911Z,101669.19
2022-10-23T04:20:33.093Z,101659.22
2022-10-23T04:23:02.511Z,101648.44
2022-10-23T04:25:29.539Z,101654.91
2022-10-23T04:27:56.417Z,101654.06
2022-10-23T04:30:23.367Z,101657.50
2022-10-23T04:32:51.848Z,101669.19
2022-10-23T04:35:19.629Z,101661.72
2022-10-23T04:37:46.739Z,101667.97
2022-10-23T04:40:13.742Z,101678.69
2022-10-23T04:42:40.954Z,101684.81
2022-10-23T04:45:08.634Z,101677.69
2022-10-23T04:47:35.886Z,101678.56
2022-10-23T04:50:03.804Z,101689.22
2022-10-23T04:52:57.885Z,101681.25
2022-10-23T04:55:27.922Z,101693.69
2022-10-23T04:58:15.086Z,101687.28
2022-10-23T05:00:44.103Z,101675.50
2022-10-23T05:03:15.221Z,101667.63
2022-10-23T05:05:42.857Z,101670.31
2022-10-23T05:08:29.460Z,101664.06
2022-10-23T05:11:15.201Z,101661.34
2022-10-23T05:13:45.920Z,101655.84
2022-10-23T05:16:31.849Z,101659.41
2022-10-23T05:19:00.213Z,101660.50
2022-10-23T05:21:30.274Z,101673.03
2022-10-23T05:26:32.599Z,101666.13
2022-10-23T05:29:05.176Z,101674.22
2022-10-23T05:31:35.348Z,101675.84
2022-10-23T05:34:13.424Z,101659.78
2022-10-23T05:36:44.877Z,101663.41
2022-10-23T05:39:13.458Z,101662.34
2022-10-23T05:41:40.510Z,101658.78
2022-10-23T05:44:07.439Z,101669.47
2022-10-23T05:47:02.454Z,101681.25
2022-10-23T05:49:38.227Z,101679.53
2022-10-23T05:52:14.342Z,101675.00
2022-10-23T05:54:52.349Z,101666.88
2022-10-23T05:57:37.683Z,101668.09
2022-10-23T06:00:09.288Z,101674.34
2022-10-23T06:02:42.034Z,101693.34
2022-10-23T06:05:22.773Z,101698.97
2022-10-23T06:08:19.418Z,101696.41
2022-10-23T06:10:50.560Z,101690.16
2022-10-23T06:13:18.829Z,101690.16
2022-10-23T06:15:46.157Z,101687.44
2022-10-23T06:18:25.414Z,101693.78
2022-10-23T06:21:01.690Z,101698.97
2022-10-23T06:23:32.631Z,101695.53
2022-10-23T06:26:25.991Z,101709.06
2022-10-23T06:29:05.284Z,101712.47
2022-10-23T06:31:32.426Z,101726.84
2022-10-23T06:34:00.108Z,101727.50
2022-10-23T06:36:29.408Z,101733.78
2022-10-23T06:39:07.257Z,101736.47
2022-10-23T06:42:09.329Z,101735.50
2022-10-23T06:45:07.215Z,101742.53
2022-10-23T06:47:54.594Z,101745.09
2022-10-23T06:50:40.252Z,101748.34
2022-10-23T06:53:12.560Z,101748.44
2022-10-23T06:55:45.330Z,101743.69
2022-10-23T06:58:12.532Z,101753.53
2022-10-23T07:00:55.217Z,101753.31
2022-10-23T07:03:22.567Z,101763.03
2022-10-23T07:05:49.749Z,101766.59
2022-10-23T07:08:16.753Z,101764.63
2022-10-23T07:10:47.978Z,101761.81
2022-10-23T07:13:16.482Z,101760.84
2022-10-23T07:16:19.779Z,101757.81
2022-10-23T07:18:58.705Z,101758.47
2022-10-23T07:21:34.855Z,101769.91
2022-10-23T07:24:22.173Z,101779.72
2022-10-23T07:29:17.493Z,101774.97
2022-10-23T07:31:44.472Z,101774.50
2022-10-23T07:34:31.712Z,101778.94
2022-10-23T07:37:30.065Z,101783.16
2022-10-23T07:39:59.277Z,101793.00
2022-10-23T07:42:26.293Z,101800.06
2022-10-23T07:44:53.716Z,101801.53
2022-10-23T07:47:21.814Z,101804.13
2022-10-23T07:49:51.389Z,101813.00
2022-10-23T07:52:20.415Z,101816.47
2022-10-23T07:55:22.606Z,101810.84
2022-10-23T07:58:08.049Z,101808.75
2022-10-23T08:00:41.467Z,101812.09
2022-10-23T08:03:16.628Z,101815.44
2022-10-23T08:05:44.606Z,101800.69
2022-10-23T08:08:11.866Z,101804.16
2022-10-23T08:10:41.776Z,101804.66
2022-10-23T08:13:14.135Z,101800.78
2022-10-23T08:15:56.783Z,101804.22
2022-10-23T08:18:45.385Z,101814.94
2022-10-23T08:21:12.686Z,101812.09
2022-10-23T08:23:39.832Z,101800.19
2022-10-23T08:26:08.395Z,101817.69
2022-10-23T08:28:36.248Z,101823.50
2022-10-23T08:31:16.834Z,101832.00
2022-10-23T08:33:59.403Z,101831.78
2022-10-23T08:36:29.071Z,101829.06
2022-10-23T08:38:58.211Z,101814.22
2022-10-23T08:41:37.686Z,101801.31
2022-10-23T08:44:41.815Z,101799.00
2022-10-23T08:47:20.294Z,101811.22
2022-10-23T08:50:19.917Z,101802.88
2022-10-23T08:53:00.441Z,101788.09
2022-10-23T08:55:35.761Z,101792.41
2022-10-23T08:58:15.277Z,101792.28
2022-10-23T09:00:45.429Z,101793.66
2022-10-23T09:03:13.480Z,101791.34
2022-10-23T09:06:12.381Z,101788.16
2022-10-23T09:09:23.931Z,101782.34
2022-10-23T09:12:07.388Z,101786.09
2022-10-23T09:15:16.514Z,101791.25
2022-10-23T09:17:44.459Z,101785.31
2022-10-23T09:20:25.806Z,101792.34
2022-10-23T09:22:59.659Z,101793.81
2022-10-23T09:25:29.513Z,101796.78
2022-10-23T09:28:04.270Z,101799.13
2022-10-23T09:30:42.528Z,101808.63
2022-10-23T09:33:24.163Z,101799.38
2022-10-23T09:36:01.578Z,101800.25
2022-10-23T09:38:46.628Z,101796.31
2022-10-23T09:41:20.582Z,101791.75
2022-10-23T09:44:07.650Z,101809.00
2022-10-23T09:46:45.314Z,101813.44
2022-10-23T09:49:22.244Z,101810.84
2022-10-23T09:52:05.007Z,101824.28
2022-10-23T09:54:38.268Z,101826.84
2022-10-23T09:57:38.370Z,101815.75
2022-10-23T10:00:17.179Z,101813.78
2022-10-23T10:03:00.365Z,101820.63
2022-10-23T10:06:03.126Z,101827.66
2022-10-23T10:09:02.081Z,101824.16
2022-10-23T10:11:44.680Z,101822.94
2022-10-23T10:14:42.640Z,101830.19
2022-10-23T10:17:48.028Z,101832.16
2022-10-23T10:20:29.096Z,101823.53
2022-10-23T10:23:07.045Z,101833.97
2022-10-23T10:26:23.161Z,101841.63
2022-10-23T10:29:25.951Z,101828.31
2022-10-23T10:32:46.517Z,101819.16
2022-10-23T10:35:46.075Z,101818.19
2022-10-23T10:38:45.689Z,101808.06
2022-10-23T10:42:02.057Z,101791.25
2022-10-23T10:45:00.153Z,101799.91
2022-10-23T10:48:18.266Z,101796.28
2022-10-23T10:51:19.063Z,101797.25
2022-10-23T10:54:08.555Z,101790.28
2022-10-23T10:56:40.076Z,101790.63
2022-10-23T10:59:38.243Z,101781.09
2022-10-23T11:02:34.427Z,101784.88
2022-10-23T11:05:19.557Z,101779.63
2022-10-23T11:07:59.937Z,101773.69
2022-10-23T11:10:28.682Z,101776.88
2022-10-23T11:12:55.932Z,101766.59
2022-10-23T11:15:30.821Z,101763.47
2022-10-23T11:18:02.666Z,101759.50
2022-10-23T11:20:50.813Z,101747.75
2022-10-23T11:23:35.879Z,101757.97
2022-10-23T11:26:36.741Z,101764.72
2022-10-23T11:29:16.578Z,101770.00
2022-10-23T11:32:07.354Z,101763.56
2022-10-23T11:34:51.978Z,101770.50
2022-10-23T11:37:24.576Z,101760.91
2022-10-23T11:40:13.144Z,101752.19
2022-10-23T11:42:40.280Z,101755.03
2022-10-23T11:45:36.474Z,101756.59
2022-10-23T11:48:06.710Z,101751.16
2022-10-23T11:50:46.198Z,101752.91
2022-10-23T11:53:31.461Z,101748.34
2022-10-23T11:56:06.740Z,101743.00
2022-10-23T11:58:49.241Z,101739.16
2022-10-23T12:01:26.216Z,101729.41
2022-10-23T12:04:13.764Z,101732.03
2022-10-23T12:06:46.011Z,101722.59
2022-10-23T12:09:45.269Z,101717.03
2022-10-23T12:12:12.248Z,101718.16
2022-10-23T12:14:48.010Z,101724.44
2022-10-23T12:17:23.735Z,101719.44
2022-10-23T12:20:12.574Z,101722.00
2022-10-23T12:23:23.790Z,101709.16
2022-10-23T12:26:11.188Z,101698.28
2022-10-23T12:29:07.456Z,101697.16
2022-10-23T12:31:48.043Z,101693.13
2022-10-23T12:35:03.511Z,101694.44
2022-10-23T12:38:15.410Z,101691.72
2022-10-23T12:41:01.609Z,101694.13
2022-10-23T12:43:35.261Z,101686.59
2022-10-23T12:46:28.282Z,101699.91
2022-10-23T12:49:04.067Z,101693.31
2022-10-23T12:51:35.854Z,101684.88
2022-10-23T12:54:04.422Z,101688.16
2022-10-23T12:56:39.112Z,101673.44
2022-10-23T12:59:17.103Z,101682.16
2022-10-23T13:01:46.889Z,101674.72
2022-10-23T13:04:35.081Z,101670.31
2022-10-23T13:07:03.906Z,101669.41
2022-10-23T13:09:39.994Z,101661.13
2022-10-23T13:12:31.358Z,101652.81
2022-10-23T13:15:16.210Z,101652.69
2022-10-23T13:17:47.574Z,101649.81
2022-10-23T13:20:17.839Z,101651.41
2022-10-23T13:22:48.229Z,101650.53
2022-10-23T13:25:27.423Z,101644.81
2022-10-23T13:28:16.372Z,101652.81
2022-10-23T13:30:48.211Z,101651.69
2022-10-23T13:33:31.277Z,101656.84
2022-10-23T13:36:03.161Z,101654.00
2022-10-23T13:38:36.635Z,101652.97
2022-10-23T13:41:11.802Z,101652.97
2022-10-23T13:43:38.901Z,101653.69
2022-10-23T13:48:38.333Z,101649.41
2022-10-23T13:51:20.744Z,101651.84
2022-10-23T13:53:48.169Z,101629.91
2022-10-23T13:56:18.535Z,101639.38
2022-10-23T13:58:46.413Z,101635.53
2022-10-23T14:01:33.478Z,101635.66
2022-10-23T14:04:00.610Z,101631.06
2022-10-23T14:06:27.807Z,101636.38
2022-10-23T14:08:54.788Z,101640.53
2022-10-23T14:11:22.430Z,101631.91
2022-10-23T14:13:52.990Z,101630.06
2022-10-23T14:16:21.542Z,101619.03
2022-10-23T14:18:49.130Z,101634.63
2022-10-23T14:21:20.213Z,101634.50
2022-10-23T14:23:48.600Z,101630.78
2022-10-23T14:26:20.046Z,101622.59
2022-10-23T14:28:47.955Z,101624.47
2022-10-23T14:31:17.498Z,101629.91
2022-10-23T14:33:46.359Z,101621.03
2022-10-23T14:36:14.016Z,101620.03
2022-10-23T14:38:41.075Z,101622.91
2022-10-23T14:41:13.705Z,101626.75
2022-10-23T14:43:40.914Z,101624.34
2022-10-23T14:46:17.179Z,101625.34
2022-10-23T14:48:46.300Z,101624.50
2022-10-23T14:51:18.627Z,101631.63
2022-10-23T14:53:46.871Z,101636.22
2022-10-23T14:56:15.320Z,101629.94
2022-10-23T14:58:43.404Z,101633.66
2022-10-23T15:01:11.023Z,101633.66
2022-10-23T15:03:38.685Z,101635.81
2022-10-23T15:06:07.238Z,101639.41
2022-10-23T15:08:35.401Z,101643.09
2022-10-23T15:11:07.687Z,101640.69
2022-10-23T15:13:37.538Z,101631.94
2022-10-23T15:16:08.419Z,101628.50
2022-10-23T15:21:09.732Z,101632.34
2022-10-23T15:23:41.257Z,101636.94
2022-10-23T15:26:13.261Z,101629.63
2022-10-23T15:28:40.829Z,101620.91
2022-10-23T15:31:29.614Z,101616.47
2022-10-23T15:33:57.711Z,101622.19
2022-10-23T15:36:24.816Z,101622.19
2022-10-23T15:38:52.770Z,101623.19
2022-10-23T15:41:29.780Z,101629.63
2022-10-23T15:43:59.303Z,101619.88
2022-10-23T15:46:26.712Z,101621.03
2022-10-23T15:48:54.410Z,101614.72
2022-10-23T15:51:21.874Z,101618.63
2022-10-23T15:53:49.216Z,101623.34
2022-10-23T15:56:16.215Z,101613.59
2022-10-23T15:58:43.528Z,101624.63
2022-10-23T16:01:10.848Z,101622.19
2022-10-23T16:03:39.058Z,101610.59
2022-10-23T16:06:13.474Z,101611.72
2022-10-23T16:08:41.241Z,101609.56
2022-10-23T16:11:27.744Z,101616.19
2022-10-23T16:13:56.731Z,101618.47
2022-10-23T16:16:24.394Z,101624.19
2022-10-23T16:18:51.697Z,101621.91
2022-10-23T16:21:24.423Z,101630.44
2022-10-23T16:23:53.177Z,101630.03
2022-10-23T16:26:20.855Z,101631.44
2022-10-23T16:28:49.992Z,101622.72
2022-10-23T16:31:20.681Z,101626.69
2022-10-23T16:33:48.488Z,101616.22
2022-10-23T16:36:16.155Z,101622.06
2022-10-23T16:39:03.698Z,101624.34
2022-10-23T16:41:49.334Z,101637.50
2022-10-23T16:44:20.709Z,101641.63
2022-10-23T16:47:09.751Z,101641.03
2022-10-23T16:49:38.351Z,101644.03
2022-10-23T16:52:06.566Z,101642.44
2022-10-23T16:54:36.402Z,101648.00
2022-10-23T16:57:04.164Z,101647.28
2022-10-23T16:59:31.404Z,101647.56
2022-10-23T17:01:58.728Z,101649.69
2022-10-23T17:04:25.726Z,101649.09
2022-10-23T17:06:52.662Z,101635.50
2022-10-23T17:09:19.572Z,101641.22
2022-10-23T17:11:47.980Z,101639.63
2022-10-23T17:14:21.070Z,101630.75
2022-10-23T17:16:51.640Z,101629.19
2022-10-23T17:19:52.055Z,101625.72
2022-10-23T17:22:10.858Z,101630.44
2022-10-23T17:24:41.181Z,101639.72
2022-10-23T17:27:08.472Z,101630.00
2022-10-23T17:29:36.162Z,101630.09
2022-10-23T17:32:04.183Z,101637.53
2022-10-23T17:34:31.561Z,101645.09
2022-10-23T17:36:58.501Z,101645.38
2022-10-23T17:39:28.920Z,101650.88
2022-10-23T17:41:56.610Z,101651.16
2022-10-23T17:44:23.937Z,101654.13
2022-10-23T17:46:55.777Z,101664.28
2022-10-23T17:49:25.007Z,101660.09
2022-10-23T17:51:55.478Z,101659.38
2022-10-23T17:54:25.067Z,101661.34
2022-10-23T17:56:52.340Z,101665.31
2022-10-23T17:59:19.814Z,101660.41
2022-10-23T18:04:30.034Z,101663.53
2022-10-23T18:06:57.340Z,101670.94
2022-10-23T18:09:24.516Z,101670.19
2022-10-23T18:11:52.816Z,101674.06
2022-10-23T18:14:21.682Z,101676.78
2022-10-23T18:16:49.449Z,101676.16
2022-10-23T18:19:18.280Z,101681.44
2022-10-23T18:21:47.349Z,101676.88
2022-10-23T18:24:15.521Z,101676.88
2022-10-23T18:26:43.033Z,101684.31
2022-10-23T18:29:11.981Z,101683.56
2022-10-23T18:31:40.298Z,101690.00
2022-10-23T18:34:19.707Z,101687.28
2022-10-23T18:36:48.246Z,101686.28
2022-10-23T18:39:22.263Z,101679.75
2022-10-23T18:41:55.515Z,101675.28
2022-10-23T18:44:24.107Z,101670.75
2022-10-23T18:46:51.715Z,101667.03
2022-10-23T18:49:20.209Z,101667.03
2022-10-23T18:51:47.411Z,101658.75
2022-10-23T18:54:17.853Z,101662.47
2022-10-23T18:56:45.352Z,101657.19
2022-10-23T18:59:18.718Z,101669.16
2022-10-23T19:01:45.966Z,101668.56
2022-10-23T19:04:15.826Z,101661.28
2022-10-23T19:06:43.444Z,101646.97
2022-10-23T19:09:14.051Z,101661.63
2022-10-23T19:11:42.574Z,101653.06
2022-10-23T19:14:10.198Z,101657.88
2022-10-23T19:16:51.251Z,101672.53
2022-10-23T19:19:24.649Z,101662.69
2022-10-23T19:21:53.853Z,101657.38
2022-10-23T19:24:27.091Z,101651.09
2022-10-23T19:26:54.679Z,101648.41
2022-10-23T19:29:26.621Z,101655.53
2022-10-23T19:31:53.768Z,101654.69
2022-10-23T19:34:22.930Z,101659.34
2022-10-23T19:36:51.116Z,101663.06
2022-10-23T19:39:18.678Z,101654.94
2022-10-23T19:41:46.220Z,101648.78
2022-10-23T19:44:14.818Z,101649.75
2022-10-23T19:46:43.189Z,101653.47
2022-10-23T19:49:12.055Z,101648.41
2022-10-23T19:51:39.445Z,101650.69
2022-10-23T19:54:06.776Z,101657.16
2022-10-23T19:56:33.753Z,101655.56
2022-10-23T19:59:01.155Z,101667.56
2022-10-23T20:01:28.624Z,101667.56
2022-10-23T20:03:56.031Z,101655.81
2022-10-23T20:06:26.992Z,101648.69
2022-10-23T20:08:54.846Z,101661.50
2022-10-23T20:11:29.425Z,101684.31
2022-10-23T20:13:59.742Z,101687.03
2022-10-23T20:16:34.619Z,101682.81
2022-10-23T20:19:07.262Z,101683.81
2022-10-23T20:21:40.131Z,101683.22
2022-10-23T20:24:08.640Z,101680.66
2022-10-23T20:26:36.253Z,101672.78
2022-10-23T20:29:03.650Z,101661.19
2022-10-23T20:31:30.645Z,101657.88
2022-10-23T20:33:57.550Z,101653.56
2022-10-23T20:36:34.930Z,101656.41
2022-10-23T20:39:06.897Z,101654.81
2022-10-23T20:41:36.853Z,101655.06
2022-10-23T20:44:09.670Z,101641.84
2022-10-23T20:46:37.884Z,101651.38
2022-10-23T20:49:04.933Z,101653.47
2022-10-23T20:51:32.020Z,101663.69
2022-10-23T20:53:59.122Z,101671.06
2022-10-23T20:56:36.168Z,101673.88
2022-10-23T20:59:07.498Z,101665.75
2022-10-23T21:01:35.342Z,101668.72
2022-10-23T21:04:03.766Z,101669.72
2022-10-23T21:06:46.256Z,101679.69
2022-10-23T21:09:24.197Z,101684.09
2022-10-23T21:11:51.304Z,101684.00
2022-10-23T21:14:18.357Z,101679.53
2022-10-23T21:16:46.620Z,101675.13
2022-10-23T21:19:16.004Z,101670.56
2022-10-23T21:21:44.254Z,101669.72
2022-10-23T21:24:16.420Z,101660.88
2022-10-23T21:26:45.217Z,101670.09
2022-10-23T21:29:20.855Z,101681.03
2022-10-23T21:31:57.724Z,101670.44
2022-10-23T21:34:26.385Z,101662.69
2022-10-23T21:37:12.533Z,101655.56
2022-10-23T21:39:42.022Z,101664.78
2022-10-23T21:42:09.860Z,101672.28
2022-10-23T21:44:36.987Z,101667.81
2022-10-23T21:47:04.560Z,101665.63
2022-10-23T21:49:32.207Z,101668.44
2022-10-23T21:51:59.181Z,101680.25
2022-10-23T21:54:26.469Z,101671.38
2022-10-23T21:56:53.960Z,101662.50
2022-10-23T21:59:27.876Z,101658.09
2022-10-23T22:01:57.596Z,101653.78
2022-10-23T22:04:24.741Z,101660.19
2022-10-23T22:06:51.764Z,101663.75
2022-10-23T22:09:21.600Z,101652.06
2022-10-23T22:11:53.427Z,101648.50
2022-10-23T22:14:21.716Z,101644.94
2022-10-23T22:16:49.378Z,101645.03
2022-10-23T22:19:18.596Z,101643.19
2022-10-23T22:21:47.844Z,101642.94
2022-10-23T22:24:16.044Z,101627.84
2022-10-23T22:26:53.298Z,101634.22
2022-10-23T22:29:25.682Z,101640.63
2022-10-23T22:31:53.079Z,101640.72
2022-10-23T22:34:41.180Z,101634.44
2022-10-23T22:37:12.482Z,101637.91
2022-10-23T22:39:40.478Z,101637.91
2022-10-23T22:42:08.016Z,101631.75
2022-10-23T22:44:34.942Z,101627.56
2022-10-23T22:47:02.595Z,101633.09
2022-10-23T22:49:29.870Z,101625.22
2022-10-23T22:51:56.827Z,101609.97
2022-10-23T22:54:24.151Z,101609.00
2022-10-23T22:56:51.270Z,101614.28
2022-10-23T22:59:18.419Z,101629.41
2022-10-23T23:01:48.041Z,101623.00
2022-10-23T23:04:37.858Z,101624.75
2022-10-23T23:07:10.490Z,101638.91
2022-10-23T23:09:44.119Z,101634.22
2022-10-23T23:12:13.910Z,101631.25
2022-10-23T23:14:41.457Z,101628.56
2022-10-23T23:17:09.529Z,101615.78
2022-10-23T23:19:37.244Z,101620.31
2022-10-23T23:22:05.012Z,101610.34
2022-10-23T23:24:32.162Z,101617.63
2022-10-23T23:26:59.463Z,101627.59
2022-10-23T23:29:28.327Z,101629.31
2022-10-23T23:31:55.346Z,101636.66
2022-10-23T23:34:22.240Z,101634.97
2022-10-23T23:36:49.211Z,101633.25
2022-10-23T23:39:16.096Z,101626.09
2022-10-23T23:41:43.265Z,101621.66
2022-10-23T23:44:10.430Z,101620.91
2022-10-23T23:46:37.566Z,101623.63
2022-10-23T23:49:04.630Z,101610.09
2022-10-23T23:51:31.759Z,101612.06
2022-10-23T23:53:58.695Z,101621.06
2022-10-23T23:56:25.646Z,101620.19
2022-10-23T23:58:52.809Z,101620.28
